This is the latest recevied weather packets stored in our database for station/object HK6RM-18. If no packets are shown the sender has not sent any weather packets the latest 10 day(s).
| Time | Temp. | Humidity | Pressure | Rain* | Wind** | Luminosity | Snow |
|---|---|---|---|---|---|---|---|
| 1778000069 | 22.22° C | 76% | 1014 hPa | 0 mm | - | - | - |
| 1777999164 | 22.78° C | 76% | 1014 hPa | 0 mm | - | - | - |
| 1777998264 | 23.33° C | 76% | 1015 hPa | 0 mm | - | - | - |
| 1777997363 | 23.89° C | 75% | 1015 hPa | 0 mm | - | - | - |
| 1777996463 | 21.11° C | 78% | 1015 hPa | 0 mm | - | - | - |
| 1777995562 | 21.67° C | 78% | 1015 hPa | 0 mm | - | - | - |
| 1777994662 | 20.56° C | 80% | 1015 hPa | 0 mm | - | - | - |
| 1777993761 | 21.11° C | 79% | 1015 hPa | 0 mm | - | - | - |
| 1777992861 | 21.67° C | 79% | 1015 hPa | 0 mm | - | - | - |
| 1777991960 | 20.56° C | 77% | 1015 hPa | 0 mm | - | - | - |
| 1777991059 | 21.11° C | 74% | 1016 hPa | 0 mm | - | - | - |
| 1777989256 | 22.22° C | 70% | 1016 hPa | 0 mm | - | - | - |
| 1777988355 | 22.78° C | 70% | 1016 hPa | 0 mm | - | - | - |
| 1777987455 | 17.78° C | 91% | 1016 hPa | 0 mm | - | - | - |
| 1777986554 | 18.33° C | 92% | 1016 hPa | 0 mm | - | - | - |
| 1777985654 | 18.89° C | 94% | 1016 hPa | 0 mm | - | - | - |
| 1777984753 | 16.67° C | 96% | 1016 hPa | 0 mm | - | - | - |
| 1777983853 | 17.22° C | 97% | 1016 hPa | 0 mm | - | - | - |
| 1777982952 | 16.11° C | 98% | 1016 hPa | 0 mm | - | - | - |
| 1777982051 | 16.67° C | 98% | 1016 hPa | 0 mm | - | - | - |
| 1777981149 | 17.22° C | 97% | 1016 hPa | 0 mm | - | - | - |
| 1777980249 | 13.89° C | 89% | 1016 hPa | 0 mm | - | - | - |
| 1777979348 | 14.44° C | 87% | 1015 hPa | 0 mm | - | - | - |
| 1777978447 | 13.89° C | 89% | 1015 hPa | 0 mm | - | - | - |
| 1777977546 | 14.44° C | 88% | 1015 hPa | 0 mm | - | - | - |
* Rain latest hour (hover to see other rain measurements)
** Current wind speed in m/s (hover to see current wind gust speed)